Time;durP1;ratioP1;P1;durP2;ratioP2;P2;SDS_P1;SDS_P2;PMS_P1;PMS_P2;Temp;Humidity;BMP_temperature;BMP_pressure;BME280_temperature;BME280_humidity;BME280_pressure;Samples;Min_cycle;Max_cycle;Signal;HPM_P1;HPM_P2
2022/04/09 00:00:15;;;;;;;;;8.33;8.33;;;;;21.14;45.04;98649.27;110238;1264;21237;-53
2022/04/09 00:03:01;;;;;;;;;13.00;9.33;;;;;21.14;45.08;98647.27;110171;1264;19569;-54
2022/04/09 00:05:28;;;;;;;;;8.00;8.00;;;;;21.14;44.79;98646.88;110208;1264;19978;-53
2022/04/09 00:07:55;;;;;;;;;9.33;9.00;;;;;21.15;45.04;98650.22;110281;1264;18879;-52
2022/04/09 00:10:22;;;;;;;;;9.00;8.67;;;;;21.15;44.98;98648.26;110308;1264;19989;-57
2022/04/09 00:12:49;;;;;;;;;8.33;8.33;;;;;21.14;44.91;98650.27;110248;1264;18419;-54
2022/04/09 00:15:17;;;;;;;;;11.33;11.33;;;;;21.14;45.07;98648.52;110232;1264;18889;-59
2022/04/09 00:17:44;;;;;;;;;10.00;9.00;;;;;21.14;44.86;98636.52;110239;1264;19501;-60
2022/04/09 00:20:11;;;;;;;;;9.50;8.00;;;;;21.12;45.02;98630.28;110224;1264;20348;-58
2022/04/09 00:22:40;;;;;;;;;13.33;9.00;;;;;21.13;44.93;98632.14;110283;1264;18808;-56
2022/04/09 00:25:08;;;;;;;;;8.00;8.00;;;;;21.13;44.78;98630.56;110272;1264;19620;-58
2022/04/09 00:27:36;;;;;;;;;9.33;9.00;;;;;21.13;44.84;98622.05;110253;1265;18777;-51
2022/04/09 00:30:04;;;;;;;;;10.00;9.33;;;;;21.12;44.84;98622.58;110208;1265;18845;-49
2022/04/09 00:32:31;;;;;;;;;8.67;8.67;;;;;21.12;44.78;98626.16;110275;1265;19591;-53
2022/04/09 00:34:59;;;;;;;;;8.67;8.67;;;;;21.13;45.10;98632.41;110153;1264;18879;-54
2022/04/09 00:37:26;;;;;;;;;13.00;10.00;;;;;21.12;44.81;98639.95;110346;1265;18953;-50
2022/04/09 00:39:53;;;;;;;;;8.00;8.00;;;;;21.13;44.76;98643.63;110247;1265;22961;-54
2022/04/09 00:42:20;;;;;;;;;8.50;8.50;;;;;21.12;44.83;98644.52;110243;1264;19755;-53
2022/04/09 00:44:48;;;;;;;;;8.00;8.00;;;;;21.11;44.90;98643.36;110254;1264;23129;-51
2022/04/09 00:47:15;;;;;;;;;9.00;8.00;;;;;21.12;44.96;98641.46;110269;1265;20787;-51
2022/04/09 00:49:42;;;;;;;;;8.67;8.00;;;;;21.12;45.03;98648.50;110283;1264;19023;-50
2022/04/09 00:52:09;;;;;;;;;8.00;7.33;;;;;21.12;44.92;98637.77;110298;1264;18783;-50
2022/04/09 00:54:36;;;;;;;;;10.00;9.00;;;;;21.10;44.89;98632.92;110261;1265;19850;-53
2022/04/09 00:57:05;;;;;;;;;9.00;9.00;;;;;21.11;44.84;98641.39;110229;1264;18511;-53
2022/04/09 00:59:32;;;;;;;;;8.33;8.33;;;;;21.10;44.80;98644.24;110233;1265;23070;-50
2022/04/09 01:01:59;;;;;;;;;9.00;9.00;;;;;21.11;44.82;98648.43;110185;1265;19845;-56
2022/04/09 01:04:27;;;;;;;;;8.33;8.00;;;;;21.12;45.01;98652.90;110258;1264;18468;-56
2022/04/09 01:06:55;;;;;;;;;12.00;10.00;;;;;21.11;44.69;98649.13;110220;1264;18872;-50
2022/04/09 01:09:22;;;;;;;;;8.00;8.00;;;;;21.11;44.88;98641.77;110186;1264;19457;-53
2022/04/09 01:11:51;;;;;;;;;8.33;8.00;;;;;21.10;44.72;98637.67;110185;1265;19348;-50
2022/04/09 01:14:18;;;;;;;;;11.33;10.00;;;;;21.12;44.72;98648.00;110172;1264;21509;-50
2022/04/09 01:16:45;;;;;;;;;9.00;9.00;;;;;21.13;44.74;98655.45;110213;1265;21337;-52
2022/04/09 01:19:12;;;;;;;;;12.00;9.00;;;;;21.12;44.55;98658.05;110305;1264;18715;-57
2022/04/09 01:21:40;;;;;;;;;11.33;8.00;;;;;21.12;44.75;98662.34;110257;1264;18838;-54
2022/04/09 01:24:07;;;;;;;;;8.00;8.00;;;;;21.11;44.83;98662.59;110249;1264;21685;-50
2022/04/09 01:26:34;;;;;;;;;13.00;9.00;;;;;21.11;44.76;98663.09;110245;1264;18772;-50
2022/04/09 01:29:01;;;;;;;;;8.00;8.00;;;;;21.09;44.67;98658.45;110177;1265;19830;-50
2022/04/09 01:31:29;;;;;;;;;8.67;8.33;;;;;21.10;44.76;98662.06;110267;1264;19637;-53
2022/04/09 01:33:56;;;;;;;;;8.33;8.00;;;;;21.09;44.95;98661.11;110223;1264;18544;-54
2022/04/09 01:36:23;;;;;;;;;12.00;9.00;;;;;21.09;44.63;98662.52;110236;1264;22441;-54
2022/04/09 01:38:51;;;;;;;;;10.00;8.00;;;;;21.08;44.58;98655.00;110192;1264;21789;-51
2022/04/09 01:41:18;;;;;;;;;10.00;8.00;;;;;21.08;44.48;98658.31;110214;1264;22730;-50
2022/04/09 01:43:45;;;;;;;;;7.00;7.00;;;;;21.06;44.68;98656.70;110272;1264;19367;-54
2022/04/09 01:46:12;;;;;;;;;8.33;8.33;;;;;21.06;44.78;98657.84;110264;1264;19634;-52
2022/04/09 01:48:41;;;;;;;;;9.00;9.00;;;;;21.06;44.44;98662.70;110098;1264;18696;-55
2022/04/09 01:51:08;;;;;;;;;9.00;9.00;;;;;21.06;44.57;98663.79;110154;1265;18995;-53
2022/04/09 01:53:36;;;;;;;;;9.00;9.00;;;;;21.09;44.66;98664.16;110148;1266;19477;-53
2022/04/09 01:56:03;;;;;;;;;8.00;8.00;;;;;21.06;44.58;98659.64;110175;1265;22923;-51
2022/04/09 01:58:30;;;;;;;;;10.00;8.00;;;;;21.05;44.48;98664.52;110248;1265;18843;-53
2022/04/09 02:00:59;;;;;;;;;12.00;9.33;;;;;21.07;44.70;98673.54;110221;1264;22466;-48
2022/04/09 02:03:26;;;;;;;;;10.00;8.00;;;;;21.05;44.71;98673.02;110257;1264;20857;-50
2022/04/09 02:05:53;;;;;;;;;8.00;8.00;;;;;21.05;44.53;98678.23;110239;1263;22650;-55
2022/04/09 02:08:21;;;;;;;;;9.67;8.67;;;;;21.06;44.62;98683.64;110268;1264;19541;-51
2022/04/09 02:10:49;;;;;;;;;9.00;8.67;;;;;21.06;44.67;98684.41;110288;1264;18455;-53
2022/04/09 02:13:18;;;;;;;;;8.67;7.33;;;;;21.05;44.52;98686.68;110218;1264;22383;-52
2022/04/09 02:15:45;;;;;;;;;7.00;6.67;;;;;21.07;44.57;98689.52;110218;1265;19552;-50
2022/04/09 02:18:12;;;;;;;;;9.33;8.33;;;;;21.06;44.51;98693.91;110239;1264;18498;-51
2022/04/09 02:20:39;;;;;;;;;12.00;8.00;;;;;21.07;44.45;98700.61;110202;1264;23315;-55
2022/04/09 02:23:07;;;;;;;;;9.00;9.00;;;;;21.06;44.35;98698.19;110267;1264;19484;-57
2022/04/09 02:25:34;;;;;;;;;9.33;8.67;;;;;21.06;44.50;98697.75;110306;1264;22226;-53
2022/04/09 02:28:01;;;;;;;;;6.00;6.00;;;;;21.05;44.48;98693.54;110262;1265;21938;-51
2022/04/09 02:30:28;;;;;;;;;8.00;8.00;;;;;21.06;44.42;98694.77;110229;1264;19410;-52
2022/04/09 02:32:56;;;;;;;;;12.33;9.00;;;;;21.06;44.48;98696.39;110252;1264;18491;-51
2022/04/09 02:35:25;;;;;;;;;9.00;8.00;;;;;21.05;44.44;98694.63;110259;1264;19045;-52
2022/04/09 02:37:52;;;;;;;;;9.00;9.00;;;;;21.05;44.29;98693.54;110287;1264;19804;-55
2022/04/09 02:40:20;;;;;;;;;7.33;6.00;;;;;21.05;44.17;98693.66;110220;1265;18405;-53
2022/04/09 02:42:47;;;;;;;;;10.00;9.00;;;;;21.05;44.35;98690.42;110339;1264;18808;-52
2022/04/09 02:45:14;;;;;;;;;8.00;8.00;;;;;21.06;44.27;98701.08;110258;1264;19476;-52
2022/04/09 02:47:41;;;;;;;;;10.00;8.00;;;;;21.06;44.27;98701.64;110280;1264;22351;-50
2022/04/09 02:50:09;;;;;;;;;9.50;8.50;;;;;21.04;44.11;98698.58;110284;1264;19119;-50
2022/04/09 02:52:36;;;;;;;;;9.00;8.00;;;;;21.05;44.22;98704.52;110282;1264;20613;-54
2022/04/09 02:55:05;;;;;;;;;9.33;9.33;;;;;21.05;44.16;98707.25;110252;1264;18635;-51
2022/04/09 02:57:32;;;;;;;;;8.00;8.00;;;;;21.04;44.12;98716.02;110282;1265;19038;-54
2022/04/09 02:59:59;;;;;;;;;10.00;10.00;;;;;21.04;44.17;98718.48;110278;1264;19590;-54
2022/04/09 03:02:26;;;;;;;;;8.33;7.33;;;;;21.03;43.98;98714.77;110266;1264;18670;-53
2022/04/09 03:04:55;;;;;;;;;9.00;9.00;;;;;21.03;44.18;98713.52;110240;1265;18841;-54
2022/04/09 03:07:23;;;;;;;;;9.00;9.00;;;;;21.03;44.09;98716.36;110252;1264;19678;-52
2022/04/09 03:09:50;;;;;;;;;9.00;9.00;;;;;21.02;44.33;98719.42;110115;1265;22389;-50
2022/04/09 03:12:17;;;;;;;;;9.00;9.00;;;;;21.02;44.09;98721.87;110106;1266;19049;-52
2022/04/09 03:14:45;;;;;;;;;9.67;9.33;;;;;21.02;44.29;98721.95;110254;1264;20078;-51
2022/04/09 03:17:12;;;;;;;;;8.67;8.00;;;;;21.03;44.28;98721.55;110241;1265;20998;-52
2022/04/09 03:19:39;;;;;;;;;12.00;11.33;;;;;21.01;44.19;98721.37;110297;1264;19018;-52
2022/04/09 03:22:06;;;;;;;;;12.33;10.00;;;;;21.01;43.98;98722.29;110304;1265;19588;-53
2022/04/09 03:24:33;;;;;;;;;12.33;10.67;;;;;21.01;43.90;98728.66;110244;1264;22242;-51
2022/04/09 03:27:01;;;;;;;;;9.00;8.67;;;;;21.02;44.21;98722.08;110199;1264;18766;-51
2022/04/09 03:29:28;;;;;;;;;9.00;9.00;;;;;21.02;44.33;98727.77;110257;1265;19900;-50
2022/04/09 03:31:57;;;;;;;;;8.67;8.67;;;;;21.02;44.37;98728.36;110264;1264;18484;-50
2022/04/09 03:34:24;;;;;;;;;9.00;8.00;;;;;21.01;44.06;98734.27;110318;1265;22329;-50
2022/04/09 03:36:51;;;;;;;;;9.00;9.00;;;;;21.02;43.87;98736.14;110265;1264;21757;-51
2022/04/09 03:39:18;;;;;;;;;10.00;9.00;;;;;21.01;44.13;98737.16;110277;1264;18430;-51
2022/04/09 03:41:46;;;;;;;;;9.00;9.00;;;;;21.02;44.07;98738.11;110253;1264;18880;-50
2022/04/09 03:44:13;;;;;;;;;8.00;8.00;;;;;21.01;43.85;98733.06;110234;1264;22767;-54
2022/04/09 03:46:40;;;;;;;;;8.67;8.67;;;;;21.01;44.06;98734.98;110301;1264;18578;-51
2022/04/09 03:49:07;;;;;;;;;8.67;8.00;;;;;21.02;43.80;98739.09;110297;1264;18740;-51
2022/04/09 03:51:35;;;;;;;;;10.00;10.00;;;;;21.02;43.70;98742.47;110266;1264;22223;-54
2022/04/09 03:54:02;;;;;;;;;10.00;9.00;;;;;21.00;43.64;98743.89;110262;1264;18534;-53
2022/04/09 03:56:29;;;;;;;;;14.33;10.00;;;;;21.00;43.52;98742.64;110180;1264;18780;-53
2022/04/09 03:58:56;;;;;;;;;12.00;9.67;;;;;21.00;43.36;98744.93;110175;1264;19593;-53
2022/04/09 04:01:24;;;;;;;;;9.67;9.00;;;;;21.00;43.49;98750.67;110117;1263;23384;-52
2022/04/09 04:03:52;;;;;;;;;10.33;8.67;;;;;21.02;43.55;98763.60;110232;1264;18740;-54
2022/04/09 04:06:20;;;;;;;;;10.00;10.00;;;;;21.00;43.66;98765.25;110209;1264;19812;-55
2022/04/09 04:08:47;;;;;;;;;10.00;9.00;;;;;21.01;43.52;98768.80;110233;1264;18811;-55
2022/04/09 04:11:14;;;;;;;;;10.00;8.00;;;;;21.01;43.77;98769.05;110274;1264;18705;-49
2022/04/09 04:13:42;;;;;;;;;10.00;9.00;;;;;21.01;43.74;98772.95;110264;1264;20874;-52
2022/04/09 04:16:09;;;;;;;;;9.00;8.00;;;;;20.99;43.82;98769.82;110300;1264;21962;-53
2022/04/09 04:18:36;;;;;;;;;10.00;9.00;;;;;20.98;43.76;98772.42;110065;1264;19713;-53
2022/04/09 04:21:04;;;;;;;;;12.00;9.00;;;;;21.02;43.50;98779.05;110147;1264;19485;-55
2022/04/09 04:23:31;;;;;;;;;10.00;9.00;;;;;20.99;43.56;98782.86;110184;1264;23107;-53
2022/04/09 04:25:58;;;;;;;;;9.00;9.00;;;;;21.01;43.34;98788.13;110101;1264;20381;-51
2022/04/09 04:28:25;;;;;;;;;13.33;11.33;;;;;21.01;43.52;98784.02;110296;1264;19649;-52
2022/04/09 04:30:52;;;;;;;;;9.33;9.33;;;;;21.02;42.95;98780.31;110235;1265;18945;-50
2022/04/09 04:33:20;;;;;;;;;12.00;10.00;;;;;21.00;43.37;98782.07;110240;1264;18745;-51
2022/04/09 04:35:47;;;;;;;;;9.67;8.67;;;;;21.01;43.41;98784.94;110250;1265;19520;-52
2022/04/09 04:38:14;;;;;;;;;10.00;9.00;;;;;21.00;43.23;98788.51;110242;1264;18780;-51
2022/04/09 04:40:41;;;;;;;;;9.00;9.00;;;;;21.01;43.39;98795.88;110289;1264;19051;-55
2022/04/09 04:43:08;;;;;;;;;8.50;8.00;;;;;21.02;43.44;98805.06;110317;1264;20824;-51
2022/04/09 04:45:36;;;;;;;;;10.00;9.00;;;;;21.01;43.37;98806.05;110269;1264;20183;-51
2022/04/09 04:48:03;;;;;;;;;10.00;9.33;;;;;21.03;43.32;98807.04;110230;1264;18933;-55
2022/04/09 04:50:30;;;;;;;;;9.00;8.00;;;;;21.03;43.36;98809.17;110238;1264;19926;-53
2022/04/09 04:52:57;;;;;;;;;10.50;9.50;;;;;21.05;43.44;98807.47;110226;1264;18988;-53
2022/04/09 04:55:24;;;;;;;;;9.00;8.00;;;;;21.03;43.13;98811.13;110275;1264;20082;-53
2022/04/09 04:57:52;;;;;;;;;9.50;9.50;;;;;21.03;42.93;98814.79;110204;1264;19902;-52
2022/04/09 05:00:19;;;;;;;;;9.67;9.00;;;;;21.01;43.05;98812.71;110255;1264;18703;-53
2022/04/09 05:02:46;;;;;;;;;9.67;9.00;;;;;21.02;43.17;98819.70;110239;1265;18707;-54
2022/04/09 05:05:14;;;;;;;;;12.00;12.00;;;;;21.03;43.10;98828.07;110251;1265;19764;-52
2022/04/09 05:07:41;;;;;;;;;13.00;10.00;;;;;21.02;43.13;98832.36;110303;1264;19707;-49
2022/04/09 05:10:08;;;;;;;;;9.00;9.00;;;;;21.01;43.32;98837.56;110259;1263;20989;-55
2022/04/09 05:12:35;;;;;;;;;9.00;8.33;;;;;21.01;42.99;98839.56;110265;1264;20202;-51
2022/04/09 05:15:03;;;;;;;;;9.67;9.33;;;;;21.01;42.76;98849.30;110202;1264;19810;-51
2022/04/09 05:17:30;;;;;;;;;13.00;9.00;;;;;21.01;43.23;98850.21;110224;1264;19031;-51
2022/04/09 05:19:57;;;;;;;;;13.00;11.33;;;;;21.00;43.17;98857.97;110226;1264;22360;-53
2022/04/09 05:22:25;;;;;;;;;10.00;9.00;;;;;21.00;43.18;98862.04;110278;1264;21059;-52
2022/04/09 05:24:52;;;;;;;;;10.00;9.50;;;;;21.01;43.21;98865.92;110260;1265;18729;-52
2022/04/09 05:27:20;;;;;;;;;9.67;9.00;;;;;21.01;43.02;98863.91;110276;1264;22768;-56
2022/04/09 05:29:47;;;;;;;;;13.67;10.00;;;;;21.04;43.21;98868.91;110281;1264;18799;-51
2022/04/09 05:32:14;;;;;;;;;10.00;9.00;;;;;21.11;43.64;98869.77;110243;1264;21881;-52
2022/04/09 05:34:41;;;;;;;;;12.33;10.00;;;;;21.16;43.80;98879.10;110280;1264;20149;-53
2022/04/09 05:37:09;;;;;;;;;9.00;9.00;;;;;21.18;43.67;98880.23;110224;1264;18673;-51
2022/04/09 05:39:36;;;;;;;;;8.67;8.00;;;;;21.17;43.45;98884.17;110229;1264;22615;-56
2022/04/09 05:42:03;;;;;;;;;9.67;9.67;;;;;21.14;43.59;98886.96;110233;1264;19508;-52
2022/04/09 05:44:30;;;;;;;;;9.00;8.50;;;;;21.15;43.80;98890.65;110194;1264;18581;-53
2022/04/09 05:46:59;;;;;;;;;10.00;9.00;;;;;21.13;43.85;98896.31;110261;1264;18806;-57
2022/04/09 05:49:26;;;;;;;;;12.00;9.00;;;;;21.14;43.72;98896.39;110237;1264;19486;-53
2022/04/09 05:51:53;;;;;;;;;10.67;10.00;;;;;21.12;43.73;98895.30;110217;1264;18992;-53
2022/04/09 05:54:20;;;;;;;;;9.33;9.00;;;;;21.12;43.62;98900.41;110199;1264;19175;-52
2022/04/09 05:56:48;;;;;;;;;13.00;11.00;;;;;21.13;43.67;98908.73;110113;1264;20419;-56
2022/04/09 05:59:15;;;;;;;;;9.00;8.33;;;;;21.13;43.53;98910.73;110242;1264;18517;-54
2022/04/09 06:01:42;;;;;;;;;9.33;9.00;;;;;21.15;43.81;98918.23;110260;1265;23626;-52
2022/04/09 06:04:09;;;;;;;;;9.33;9.00;;;;;21.17;43.78;98918.66;110304;1264;19639;-54
2022/04/09 06:06:38;;;;;;;;;10.00;9.00;;;;;21.20;43.76;98922.73;110203;1264;20183;-54
2022/04/09 06:09:05;;;;;;;;;10.00;8.00;;;;;21.26;43.83;98920.43;110184;1264;18890;-55
2022/04/09 06:11:32;;;;;;;;;12.00;12.00;;;;;21.29;43.74;98923.23;110272;1264;19788;-54
2022/04/09 06:13:59;;;;;;;;;9.00;9.00;;;;;21.28;43.79;98925.74;110262;1265;22682;-54
2022/04/09 06:16:27;;;;;;;;;8.00;8.00;;;;;21.28;43.76;98922.54;110214;1264;144962;-53
2022/04/09 06:18:54;;;;;;;;;10.00;9.00;;;;;21.27;43.66;98929.89;110270;1264;19765;-54
2022/04/09 06:21:21;;;;;;;;;7.33;7.33;;;;;21.28;43.75;98927.08;110231;1264;18474;-52
2022/04/09 06:23:48;;;;;;;;;9.67;9.67;;;;;21.29;43.76;98930.17;110223;1264;21351;-53
2022/04/09 06:26:16;;;;;;;;;10.00;9.00;;;;;21.30;43.92;98933.17;110155;1265;19517;-57
2022/04/09 06:28:43;;;;;;;;;8.00;8.00;;;;;21.30;43.67;98934.88;110329;1264;18756;-57
2022/04/09 06:31:11;;;;;;;;;8.33;8.33;;;;;21.32;43.80;98936.08;110291;1264;19034;-55
2022/04/09 06:33:38;;;;;;;;;9.00;9.00;;;;;21.34;43.80;98933.96;110247;1264;19782;-56
2022/04/09 06:36:05;;;;;;;;;9.67;8.67;;;;;21.37;43.66;98933.55;110254;1264;21286;-54
2022/04/09 06:38:33;;;;;;;;;8.00;8.00;;;;;21.40;43.78;98937.42;110241;1264;20037;-52
2022/04/09 06:41:00;;;;;;;;;8.67;8.33;;;;;21.43;43.62;98941.50;110261;1265;19661;-53
2022/04/09 06:43:27;;;;;;;;;8.00;8.00;;;;;21.44;43.83;98956.38;110291;1264;18603;-53
2022/04/09 06:45:55;;;;;;;;;10.00;10.00;;;;;21.47;44.07;98964.52;110266;1265;22915;-55
2022/04/09 06:48:22;;;;;;;;;9.00;9.00;;;;;21.52;44.10;98968.01;110164;1264;19828;-54
2022/04/09 06:50:49;;;;;;;;;8.00;8.00;;;;;21.51;44.16;98968.50;110163;1264;22117;-56
2022/04/09 06:53:16;;;;;;;;;9.00;8.00;;;;;21.55;44.40;98968.67;110158;1264;19998;-56
2022/04/09 06:55:43;;;;;;;;;9.33;9.33;;;;;21.55;44.09;98969.36;110315;1264;20127;-52
2022/04/09 06:58:11;;;;;;;;;9.00;9.00;;;;;21.51;44.13;98973.58;110164;1265;22283;-55
2022/04/09 07:00:38;;;;;;;;;9.33;8.33;;;;;21.52;43.92;98976.67;110293;1264;18973;-55
2022/04/09 07:03:05;;;;;;;;;9.33;9.00;;;;;21.59;43.63;98973.43;110213;1264;19793;-56
2022/04/09 07:05:32;;;;;;;;;9.67;9.00;;;;;21.66;43.69;98978.14;110243;1264;19228;-53
2022/04/09 07:08:01;;;;;;;;;12.00;10.00;;;;;21.71;43.59;98986.90;110276;1264;18805;-53
2022/04/09 07:10:28;;;;;;;;;8.33;8.00;;;;;21.73;43.89;98988.17;110278;1264;19635;-53
2022/04/09 07:12:55;;;;;;;;;9.00;8.00;;;;;21.74;44.10;98986.87;110260;1264;18680;-55
2022/04/09 07:15:23;;;;;;;;;13.00;10.00;;;;;21.77;44.61;98987.17;110256;1264;19570;-57
2022/04/09 07:17:50;;;;;;;;;9.67;9.00;;;;;21.83;44.68;99000.74;110237;1264;19668;-52
2022/04/09 07:20:18;;;;;;;;;10.00;9.00;;;;;21.83;44.81;99002.42;110243;1264;18890;-53
2022/04/09 07:22:45;;;;;;;;;9.33;9.00;;;;;21.83;44.86;99009.30;110252;1264;18767;-51
2022/04/09 07:25:13;;;;;;;;;8.00;6.67;;;;;21.87;45.02;99008.52;110195;1265;20988;-50
2022/04/09 07:27:40;;;;;;;;;9.00;9.00;;;;;21.92;45.30;99008.66;110172;1264;18538;-51
2022/04/09 07:30:07;;;;;;;;;8.33;8.00;;;;;21.96;45.21;99012.39;110126;1264;22316;-52
2022/04/09 07:32:35;;;;;;;;;12.00;12.00;;;;;21.98;45.20;99019.84;110273;1264;19833;-52
2022/04/09 07:35:02;;;;;;;;;10.00;9.33;;;;;21.95;45.06;99021.06;110198;1264;18411;-54
2022/04/09 07:37:29;;;;;;;;;9.67;8.00;;;;;21.91;44.84;99024.16;110280;1265;20488;-55
2022/04/09 07:39:57;;;;;;;;;9.00;8.00;;;;;21.91;44.84;99024.11;110263;1264;19602;-53
2022/04/09 07:42:24;;;;;;;;;7.33;7.00;;;;;21.91;44.82;99031.37;110191;1264;18493;-52
2022/04/09 07:44:52;;;;;;;;;6.00;6.00;;;;;21.95;44.87;99033.56;110262;1265;22959;-54
2022/04/09 07:47:19;;;;;;;;;9.00;7.00;;;;;22.00;44.67;99046.05;110186;1263;19603;-57
2022/04/09 07:49:47;;;;;;;;;8.00;7.00;;;;;22.03;44.72;99048.86;110301;1264;18438;-52
2022/04/09 07:52:14;;;;;;;;;8.00;7.00;;;;;22.08;44.51;99051.00;110166;1264;18812;-54
2022/04/09 07:54:41;;;;;;;;;53.00;40.67;;;;;22.13;44.54;99053.61;110064;1264;19696;-55
2022/04/09 07:57:08;;;;;;;;;96.00;67.00;;;;;22.16;44.78;99057.24;110190;1264;18473;-50
2022/04/09 07:59:35;;;;;;;;;151.67;114.00;;;;;22.13;44.60;99063.73;110233;1264;18996;-52
2022/04/09 08:02:03;;;;;;;;;137.50;101.00;;;;;22.11;44.59;99072.73;110228;1263;19611;-57
2022/04/09 08:04:30;;;;;;;;;126.00;96.00;;;;;22.09;44.49;99080.56;110285;1264;19127;-51
2022/04/09 08:06:57;;;;;;;;;96.00;68.33;;;;;22.07;44.71;99086.86;110247;1265;19017;-54
2022/04/09 08:09:24;;;;;;;;;90.67;66.00;;;;;22.09;45.05;99094.36;110234;1265;19587;-52
2022/04/09 08:11:53;;;;;;;;;78.33;60.00;;;;;22.06;45.51;99106.21;110228;1265;20185;-55
2022/04/09 08:14:20;;;;;;;;;78.50;55.00;;;;;22.04;45.76;99102.80;110098;1264;18863;-53
2022/04/09 08:16:47;;;;;;;;;69.50;54.00;;;;;21.98;45.79;99112.16;110330;1264;19605;-53
2022/04/09 08:19:15;;;;;;;;;59.33;46.33;;;;;21.92;44.88;99115.08;110279;1264;22371;-50
2022/04/09 08:21:42;;;;;;;;;67.00;48.00;;;;;21.92;45.02;99118.63;110252;1264;18920;-52
2022/04/09 08:24:10;;;;;;;;;65.00;48.33;;;;;21.93;44.73;99126.90;110261;1264;19477;-53
2022/04/09 08:26:38;;;;;;;;;62.50;47.50;;;;;21.93;44.52;99129.89;110290;1264;20850;-53
2022/04/09 08:29:05;;;;;;;;;54.00;42.67;;;;;21.89;44.62;99128.67;110242;1264;19087;-54
2022/04/09 08:31:33;;;;;;;;;51.00;40.00;;;;;21.82;43.78;99132.36;110261;1264;19581;-50
2022/04/09 08:34:00;;;;;;;;;29.00;26.00;;;;;21.73;42.52;99141.66;110086;1265;18769;-56
2022/04/09 08:36:27;;;;;;;;;39.00;33.33;;;;;21.63;40.98;99148.54;110176;1265;22830;-54
2022/04/09 08:38:55;;;;;;;;;42.33;34.00;;;;;21.60;41.78;99158.63;110268;1264;19974;-54
2022/04/09 08:41:23;;;;;;;;;34.50;31.00;;;;;21.56;42.19;99161.33;110242;1264;18838;-56
2022/04/09 08:43:50;;;;;;;;;25.67;24.33;;;;;21.54;41.91;99171.60;110314;1264;19096;-55
2022/04/09 08:46:18;;;;;;;;;28.33;25.00;;;;;21.49;40.49;99177.45;110279;1264;19648;-52
2022/04/09 08:48:45;;;;;;;;;22.67;21.33;;;;;21.45;38.07;99185.14;110255;1265;22904;-53
2022/04/09 08:51:12;;;;;;;;;24.00;20.00;;;;;21.35;35.77;99189.56;110226;1264;19114;-55
2022/04/09 08:53:40;;;;;;;;;19.00;17.50;;;;;21.23;34.34;99198.95;110164;1265;21995;-52
2022/04/09 08:56:07;;;;;;;;;20.00;18.00;;;;;21.14;33.83;99193.83;110243;1264;20811;-51
2022/04/09 08:58:35;;;;;;;;;17.67;17.00;;;;;21.13;34.85;99197.35;110256;1265;19018;-53
2022/04/09 09:01:02;;;;;;;;;17.00;16.67;;;;;21.17;34.40;99202.03;110281;1264;19523;-55
2022/04/09 09:03:29;;;;;;;;;18.33;15.00;;;;;21.27;35.06;99211.22;110216;1265;18751;-56
2022/04/09 09:05:56;;;;;;;;;21.00;14.00;;;;;21.40;35.55;99214.95;110206;1264;18942;-51
2022/04/09 09:08:24;;;;;;;;;17.67;14.00;;;;;21.51;36.23;99225.70;110106;1265;20240;-53
2022/04/09 09:10:51;;;;;;;;;20.00;17.00;;;;;21.58;36.69;99226.30;110286;1264;19014;-51
2022/04/09 09:13:19;;;;;;;;;16.67;14.00;;;;;21.62;37.69;99232.15;110333;1265;19074;-56
2022/04/09 09:15:46;;;;;;;;;22.00;18.00;;;;;21.65;38.86;99226.97;110227;1264;19604;-54
2022/04/09 09:18:13;;;;;;;;;21.33;21.00;;;;;21.70;39.61;99227.40;110063;1266;18749;-55
2022/04/09 09:20:41;;;;;;;;;16.33;14.67;;;;;21.75;39.82;99236.80;110169;1264;18902;-54
2022/04/09 09:23:08;;;;;;;;;16.50;16.00;;;;;21.79;40.14;99232.92;110248;1264;19472;-49
2022/04/09 09:25:35;;;;;;;;;19.67;18.67;;;;;21.83;40.59;99234.36;110228;1264;18713;-57
2022/04/09 09:28:03;;;;;;;;;21.00;20.00;;;;;21.90;40.96;99236.49;110174;1264;19163;-54
2022/04/09 09:30:30;;;;;;;;;25.67;21.00;;;;;21.97;41.32;99234.13;110143;1265;23172;-51
2022/04/09 09:32:57;;;;;;;;;18.00;17.00;;;;;22.03;42.34;99233.80;110129;1264;18657;-53
2022/04/09 09:35:24;;;;;;;;;18.00;17.00;;;;;22.08;42.55;99237.71;110234;1264;18963;-53
2022/04/09 09:37:51;;;;;;;;;24.00;22.00;;;;;22.10;42.74;99234.80;110248;1265;19596;-55
2022/04/09 09:40:19;;;;;;;;;20.33;18.00;;;;;22.11;43.41;99239.21;110287;1264;18705;-56
2022/04/09 09:42:46;;;;;;;;;17.00;16.00;;;;;22.15;43.75;99234.52;110202;1264;20252;-51
2022/04/09 09:45:13;;;;;;;;;15.50;15.00;;;;;22.15;44.10;99232.13;110159;1264;23715;-51
2022/04/09 09:47:40;;;;;;;;;13.00;11.00;;;;;22.17;44.49;99236.07;110205;1264;19162;-49
2022/04/09 09:50:07;;;;;;;;;14.33;14.00;;;;;22.19;44.63;99234.89;110228;1264;19016;-53
2022/04/09 09:52:36;;;;;;;;;19.67;18.00;;;;;22.18;44.60;99232.95;110273;1264;19426;-53
2022/04/09 09:55:05;;;;;;;;;21.00;17.00;;;;;22.17;44.51;99238.38;110225;1264;22724;-56
2022/04/09 09:57:33;;;;;;;;;18.33;17.00;;;;;22.20;44.45;99245.56;110229;1264;18779;-54
2022/04/09 10:00:01;;;;;;;;;14.00;13.33;;;;;22.23;44.41;99240.38;110239;1264;20083;-52
2022/04/09 10:02:29;;;;;;;;;18.00;15.00;;;;;22.25;44.10;99236.13;110179;1265;22259;-52
2022/04/09 10:04:56;;;;;;;;;14.00;13.00;;;;;22.23;44.21;99235.95;110214;1264;18912;-54
2022/04/09 10:07:24;;;;;;;;;17.00;14.50;;;;;22.12;44.28;99240.89;110263;1264;19493;-52
2022/04/09 10:09:53;;;;;;;;;10.67;10.67;;;;;21.96;44.16;99233.05;110257;1264;19263;-54
2022/04/09 10:12:20;;;;;;;;;13.67;12.67;;;;;21.77;41.88;99243.30;110317;1264;18840;-53
2022/04/09 10:14:47;;;;;;;;;12.67;12.67;;;;;21.70;41.62;99249.50;110236;1264;19808;-55
2022/04/09 10:17:14;;;;;;;;;13.00;11.00;;;;;21.75;39.80;99250.27;110208;1264;20127;-52
2022/04/09 10:19:42;;;;;;;;;9.00;8.67;;;;;21.87;39.01;99249.31;110251;1264;18952;-51
2022/04/09 10:22:09;;;;;;;;;13.00;11.00;;;;;21.92;39.36;99252.11;110159;1264;21631;-51
2022/04/09 10:24:36;;;;;;;;;14.50;10.50;;;;;21.93;39.66;99250.02;110169;1264;18600;-56
2022/04/09 10:27:04;;;;;;;;;11.67;9.67;;;;;21.96;40.07;99252.65;110199;1264;18994;-54
2022/04/09 10:29:32;;;;;;;;;13.67;11.00;;;;;21.93;40.27;99255.64;110144;1264;19619;-51
2022/04/09 10:31:59;;;;;;;;;10.67;10.33;;;;;21.95;40.17;99263.14;110263;1265;18822;-55
2022/04/09 10:34:27;;;;;;;;;10.00;9.67;;;;;21.99;40.43;99256.03;110298;1264;18914;-53
2022/04/09 10:36:54;;;;;;;;;13.00;10.00;;;;;22.03;40.85;99255.98;110232;1264;19590;-53
2022/04/09 10:39:22;;;;;;;;;7.33;7.00;;;;;22.07;41.05;99267.05;110255;1263;18746;-54
2022/04/09 10:41:49;;;;;;;;;10.00;9.33;;;;;22.08;41.15;99270.99;110225;1264;19042;-55
2022/04/09 10:44:16;;;;;;;;;10.67;9.67;;;;;22.07;41.29;99270.89;110246;1264;19673;-53
2022/04/09 10:46:44;;;;;;;;;13.33;11.00;;;;;22.06;41.56;99283.98;110312;1264;18786;-51
2022/04/09 10:49:12;;;;;;;;;13.00;10.33;;;;;22.04;41.63;99288.85;110286;1264;18919;-53
2022/04/09 10:51:39;;;;;;;;;10.67;10.67;;;;;21.99;41.54;99283.85;110249;1264;19525;-54
2022/04/09 10:54:07;;;;;;;;;11.00;10.00;;;;;21.94;41.67;99284.85;110257;1265;18730;-55
2022/04/09 10:56:34;;;;;;;;;9.33;7.67;;;;;21.87;41.79;99288.16;110238;1264;22803;-53
2022/04/09 10:59:01;;;;;;;;;12.00;10.00;;;;;21.84;41.91;99288.27;110269;1265;19500;-54
2022/04/09 11:01:28;;;;;;;;;8.67;8.67;;;;;21.81;41.76;99291.39;110256;1264;18465;-54
2022/04/09 11:03:55;;;;;;;;;13.50;11.00;;;;;21.79;41.93;99286.13;110234;1264;18743;-51
2022/04/09 11:06:23;;;;;;;;;13.00;9.00;;;;;21.76;42.07;99297.13;110241;1264;19448;-53
2022/04/09 11:08:50;;;;;;;;;9.00;7.50;;;;;21.74;41.99;99302.37;110204;1265;19299;-55
2022/04/09 11:11:18;;;;;;;;;10.33;9.33;;;;;21.72;42.00;99298.74;110206;1264;21624;-53
2022/04/09 11:13:45;;;;;;;;;9.33;8.33;;;;;21.68;42.15;99301.45;110285;1264;22386;-55
2022/04/09 11:16:12;;;;;;;;;9.00;8.50;;;;;21.69;42.01;99302.49;110274;1264;19330;-52